Sunday, February 1, 2015, 2:38 PM EST

KMUI, Muir Army Air Field / Indiantown

Location: Jonestown, PA, United States Lat: 40.433
Local Time: 2:38 PM EST (19:38 GMT) Lon: -76.567
Time Zone: US/Eastern Elev: 488 ft

Show me the last for .
Show Decoded

2015-02-01 13:58 METAR KMUI 011858Z AUTO 20005KT 10SM FEW047 01/M07 A3012 RMK AO2 SLP209
                 T00141066 =
2015-02-01 12:58 METAR KMUI 011758Z AUTO 22005KT 10SM BKN037 01/M06 A3014 RMK AO2 SLP216
                 T00141065 10015 21054 57029 =
2015-02-01 11:58 METAR KMUI 011658Z AUTO 00000KT 10SM BKN055 00/M07 A3018 RMK AO2 SLP229
                 T00011071 =
2015-02-01 10:58 METAR KMUI 011558Z AUTO 00000KT 10SM CLR M01/M08 A3022 RMK AO2 SLP243 T10091079
                 =
2015-02-01 09:58 METAR KMUI 011458Z AUTO 23003KT 10SM OVC048 M03/M09 A3023 RMK AO2 SLP246
                 T10291087 50002 =
2015-02-01 09:20 METAR KMUI 011420Z AUTO VRB01KT 10SM SCT024 M04/M09 A3023 RMK AO2 =
2015-02-01 09:02 METAR KMUI 011402Z AUTO 27002KT 10SM BKN025 M04/M10 A3023 RMK AO2 BKN V FEW =
2015-02-01 08:58 METAR KMUI 011358Z AUTO 00000KT 10SM SCT025 M04/M10 A3024 RMK AO2 SLP250
                 T10451099 =
2015-02-01 07:58 METAR KMUI 011258Z AUTO 00000KT 10SM SCT046 M05/M09 A3023 RMK AO2 SLP247
                 T10521092 =
2015-02-01 06:58 METAR KMUI 011158Z AUTO 00000KT 10SM OVC048 M05/M10 A3023 RMK AO2 SLP247
                 T10541099 11050 21076 50004 =
2015-02-01 04:58 METAR KMUI 010958Z AUTO 24005KT 10SM OVC045 M05/M11 A3022 RMK AO2 SLP243
                 T10551106 =
2015-02-01 03:58 METAR KMUI 010858Z AUTO 24002KT 10SM OVC043 M07/M11 A3022 RMK AO2 SLP244
                 T10661107 58002 =
2015-02-01 02:58 METAR KMUI 010758Z AUTO 00000KT 10SM OVC047 M07/M12 A3022 RMK AO2 SLP244
                 T10731117 =
2015-02-01 01:58 METAR KMUI 010658Z AUTO 25004KT 10SM OVC047 M07/M13 A3023 RMK AO2 SLP248
                 T10741126 =
2015-02-01 00:58 METAR KMUI 010558Z AUTO 25005KT 10SM CLR M07/M13 A3022 RMK AO2 SLP244 T10691132
                 11041 21069 50001 =
2015-01-31 23:58 METAR KMUI 010458Z AUTO 25003KT 10SM CLR M06/M13 A3023 RMK AO2 SLP248 T10621134
                 410311120 =
2015-01-31 22:58 METAR KMUI 010358Z AUTO 20003KT 10SM CLR M05/M13 A3022 RMK AO2 SLP244 T10551133
                 =
2015-01-31 21:58 METAR KMUI 010258Z AUTO 26005KT 10SM CLR M04/M13 A3022 RMK AO2 SLP244 T10411131
                 58004 =
2015-01-31 20:58 METAR KMUI 010158Z AUTO 26008KT 10SM CLR M04/M14 A3023 RMK AO2 SLP248 T10421137
                 =
2015-01-31 19:58 METAR KMUI 010058Z AUTO 26009KT 10SM CLR M04/M14 A3023 RMK AO2 SLP248 T10451140
                 =
2015-01-31 18:58 METAR KMUI 312358Z AUTO 25009KT 10SM CLR M04/M14 A3023 RMK AO2 SLP249 T10451143
                 11031 21054 53008 =
2015-01-31 17:58 METAR KMUI 312258Z AUTO 25010KT 10SM CLR M04/M14 A3022 RMK AO2 SLP245 T10431139
                 =
2015-01-31 16:58 METAR KMUI 312158Z AUTO 29007KT 10SM CLR M03/M14 A3020 RMK AO2 SLP238 T10341143
                 =
2015-01-31 15:58 METAR KMUI 312058Z AUTO 27007KT 10SM CLR M03/M14 A3021 RMK AO2 SLP241 T10321145
                 56009 =
2015-01-31 14:58 METAR KMUI 311958Z AUTO 31010G20KT 10SM CLR M04/M15 A3021 RMK AO2 SLP241
                 T10381155 =

Support USWX by starting your Amazon purchase here.